sensor_id;sensor_type;location;lat;lon;timestamp;pressure;altitude;pressure_sealevel;temperature;humidity
72308;BME280;60257;42.638;23.376;2023-08-01T00:02:05;94312.97;;;19.78;63.88
72308;BME280;60257;42.638;23.376;2023-08-01T00:04:30;94316.16;;;19.77;63.96
72308;BME280;60257;42.638;23.376;2023-08-01T00:06:56;94315.47;;;19.69;64.06
72308;BME280;60257;42.638;23.376;2023-08-01T00:09:21;94316.66;;;19.68;64.13
72308;BME280;60257;42.638;23.376;2023-08-01T00:11:47;94316.72;;;19.61;64.42
72308;BME280;60257;42.638;23.376;2023-08-01T00:14:12;94312.81;;;19.55;64.75
72308;BME280;60257;42.638;23.376;2023-08-01T00:16:38;94308.88;;;19.52;64.82
72308;BME280;60257;42.638;23.376;2023-08-01T00:19:03;94324.75;;;19.55;64.85
72308;BME280;60257;42.638;23.376;2023-08-01T00:21:28;94316.47;;;19.45;65.20
72308;BME280;60257;42.638;23.376;2023-08-01T00:23:57;94309.72;;;19.49;64.87
72308;BME280;60257;42.638;23.376;2023-08-01T00:26:22;94314.88;;;19.47;65.14
72308;BME280;60257;42.638;23.376;2023-08-01T00:28:48;94305.75;;;19.47;65.00
72308;BME280;60257;42.638;23.376;2023-08-01T00:31:14;94308.88;;;19.52;64.94
72308;BME280;60257;42.638;23.376;2023-08-01T00:33:39;94309.25;;;19.54;64.80
72308;BME280;60257;42.638;23.376;2023-08-01T00:36:05;94313.63;;;19.52;64.95
72308;BME280;60257;42.638;23.376;2023-08-01T00:38:35;94314.88;;;19.51;64.84
72308;BME280;60257;42.638;23.376;2023-08-01T00:41:01;94310.09;;;19.44;64.92
72308;BME280;60257;42.638;23.376;2023-08-01T00:43:26;94311.34;;;19.40;65.30
72308;BME280;60257;42.638;23.376;2023-08-01T00:45:55;94316.94;;;19.36;65.52
72308;BME280;60257;42.638;23.376;2023-08-01T00:48:24;94313.00;;;19.34;66.02
72308;BME280;60257;42.638;23.376;2023-08-01T00:50:50;94313.03;;;19.30;66.47
72308;BME280;60257;42.638;23.376;2023-08-01T00:53:16;94311.81;;;19.31;66.46
72308;BME280;60257;42.638;23.376;2023-08-01T00:55:43;94312.69;;;19.25;66.71
72308;BME280;60257;42.638;23.376;2023-08-01T00:58:09;94313.50;;;19.21;66.87
72308;BME280;60257;42.638;23.376;2023-08-01T01:00:34;94302.84;;;19.16;66.77
72308;BME280;60257;42.638;23.376;2023-08-01T01:03:00;94296.53;;;19.12;67.19
72308;BME280;60257;42.638;23.376;2023-08-01T01:05:27;94302.09;;;19.12;67.02
72308;BME280;60257;42.638;23.376;2023-08-01T01:07:57;94302.13;;;19.05;67.29
72308;BME280;60257;42.638;23.376;2023-08-01T01:10:23;94298.19;;;19.03;67.46
72308;BME280;60257;42.638;23.376;2023-08-01T01:12:48;94294.28;;;18.93;68.02
72308;BME280;60257;42.638;23.376;2023-08-01T01:15:15;94285.94;;;18.93;67.87
72308;BME280;60257;42.638;23.376;2023-08-01T01:17:41;94293.47;;;18.96;66.59
72308;BME280;60257;42.638;23.376;2023-08-01T01:20:06;94283.97;;;18.94;66.73
72308;BME280;60257;42.638;23.376;2023-08-01T01:22:32;94292.22;;;19.04;66.44
72308;BME280;60257;42.638;23.376;2023-08-01T01:24:59;94287.06;;;19.03;67.27
72308;BME280;60257;42.638;23.376;2023-08-01T01:27:27;94279.09;;;19.05;66.78
72308;BME280;60257;42.638;23.376;2023-08-01T01:29:53;94281.00;;;19.15;66.58
72308;BME280;60257;42.638;23.376;2023-08-01T01:32:20;94280.97;;;19.18;66.06
72308;BME280;60257;42.638;23.376;2023-08-01T01:34:47;94273.38;;;19.26;65.40
72308;BME280;60257;42.638;23.376;2023-08-01T01:37:12;94282.84;;;19.29;65.37
72308;BME280;60257;42.638;23.376;2023-08-01T01:39:38;94284.41;;;19.33;65.12
72308;BME280;60257;42.638;23.376;2023-08-01T01:42:03;94274.16;;;19.27;65.64
72308;BME280;60257;42.638;23.376;2023-08-01T01:44:29;94277.22;;;19.36;65.42
72308;BME280;60257;42.638;23.376;2023-08-01T01:46:55;94263.69;;;19.41;65.73
72308;BME280;60257;42.638;23.376;2023-08-01T01:49:20;94265.25;;;19.42;65.74
72308;BME280;60257;42.638;23.376;2023-08-01T01:51:46;94266.00;;;19.46;65.48
72308;BME280;60257;42.638;23.376;2023-08-01T01:54:11;94273.22;;;19.40;64.56
72308;BME280;60257;42.638;23.376;2023-08-01T01:56:37;94278.47;;;19.31;64.62
72308;BME280;60257;42.638;23.376;2023-08-01T01:59:05;94288.41;;;19.29;64.82
72308;BME280;60257;42.638;23.376;2023-08-01T02:01:30;94284.81;;;19.32;64.79
72308;BME280;60257;42.638;23.376;2023-08-01T02:03:56;94292.69;;;19.37;64.59
72308;BME280;60257;42.638;23.376;2023-08-01T02:06:21;94282.03;;;19.35;64.53
72308;BME280;60257;42.638;23.376;2023-08-01T02:08:47;94277.59;;;19.38;64.43
72308;BME280;60257;42.638;23.376;2023-08-01T02:11:12;94281.25;;;19.31;64.53
72308;BME280;60257;42.638;23.376;2023-08-01T02:13:38;94278.88;;;19.30;63.95
72308;BME280;60257;42.638;23.376;2023-08-01T02:16:03;94277.34;;;19.25;64.09
72308;BME280;60257;42.638;23.376;2023-08-01T02:18:28;94281.72;;;19.22;64.38
72308;BME280;60257;42.638;23.376;2023-08-01T02:20:54;94280.13;;;19.21;64.17
72308;BME280;60257;42.638;23.376;2023-08-01T02:23:19;94285.38;;;19.16;64.05
72308;BME280;60257;42.638;23.376;2023-08-01T02:25:45;94283.06;;;19.07;64.21
72308;BME280;60257;42.638;23.376;2023-08-01T02:28:10;94282.66;;;19.09;64.21
72308;BME280;60257;42.638;23.376;2023-08-01T02:30:37;94280.72;;;19.02;64.04
72308;BME280;60257;42.638;23.376;2023-08-01T02:33:03;94274.03;;;18.96;65.13
72308;BME280;60257;42.638;23.376;2023-08-01T02:35:28;94275.66;;;18.90;66.54
72308;BME280;60257;42.638;23.376;2023-08-01T02:37:55;94275.34;;;18.81;67.13
72308;BME280;60257;42.638;23.376;2023-08-01T02:40:20;94278.94;;;18.74;67.46
72308;BME280;60257;42.638;23.376;2023-08-01T02:42:46;94282.22;;;18.66;67.90
72308;BME280;60257;42.638;23.376;2023-08-01T02:45:12;94285.41;;;18.61;67.88
72308;BME280;60257;42.638;23.376;2023-08-01T02:47:37;94281.06;;;18.53;68.27
72308;BME280;60257;42.638;23.376;2023-08-01T02:50:03;94278.31;;;18.45;68.50
72308;BME280;60257;42.638;23.376;2023-08-01T02:52:28;94287.91;;;18.37;68.66
72308;BME280;60257;42.638;23.376;2023-08-01T02:54:54;94274.84;;;18.31;68.87
72308;BME280;60257;42.638;23.376;2023-08-01T02:57:19;94276.09;;;18.26;69.25
72308;BME280;60257;42.638;23.376;2023-08-01T02:59:45;94273.41;;;18.05;70.06
72308;BME280;60257;42.638;23.376;2023-08-01T03:02:10;94276.16;;;18.05;69.95
72308;BME280;60257;42.638;23.376;2023-08-01T03:04:36;94282.16;;;17.96;69.32
72308;BME280;60257;42.638;23.376;2023-08-01T03:07:01;94281.38;;;17.96;69.66
72308;BME280;60257;42.638;23.376;2023-08-01T03:09:26;94282.53;;;18.02;69.54
72308;BME280;60257;42.638;23.376;2023-08-01T03:11:52;94284.13;;;18.03;69.57
72308;BME280;60257;42.638;23.376;2023-08-01T03:14:17;94282.94;;;18.00;69.86
72308;BME280;60257;42.638;23.376;2023-08-01T03:16:43;94286.13;;;17.99;70.15
72308;BME280;60257;42.638;23.376;2023-08-01T03:19:08;94275.44;;;17.94;70.50
72308;BME280;60257;42.638;23.376;2023-08-01T03:21:34;94278.63;;;17.92;69.86
72308;BME280;60257;42.638;23.376;2023-08-01T03:24:01;94278.22;;;17.90;69.69
72308;BME280;60257;42.638;23.376;2023-08-01T03:26:26;94271.53;;;17.84;69.29
72308;BME280;60257;42.638;23.376;2023-08-01T03:28:56;94277.84;;;17.88;69.03
72308;BME280;60257;42.638;23.376;2023-08-01T03:31:24;94283.41;;;17.88;68.41
72308;BME280;60257;42.638;23.376;2023-08-01T03:33:50;94282.97;;;17.90;68.15
72308;BME280;60257;42.638;23.376;2023-08-01T03:36:15;94285.00;;;17.82;68.63
72308;BME280;60257;42.638;23.376;2023-08-01T03:38:41;94297.66;;;17.87;68.69
72308;BME280;60257;42.638;23.376;2023-08-01T03:41:06;94296.84;;;17.90;69.52
72308;BME280;60257;42.638;23.376;2023-08-01T03:43:32;94302.84;;;17.78;71.63
72308;BME280;60257;42.638;23.376;2023-08-01T03:45:57;94296.56;;;17.63;72.29
72308;BME280;60257;42.638;23.376;2023-08-01T03:48:23;94300.50;;;17.55;72.77
72308;BME280;60257;42.638;23.376;2023-08-01T03:50:48;94308.88;;;17.41;73.04
72308;BME280;60257;42.638;23.376;2023-08-01T03:53:14;94315.97;;;17.35;73.61
72308;BME280;60257;42.638;23.376;2023-08-01T03:55:39;94310.06;;;17.25;73.95
72308;BME280;60257;42.638;23.376;2023-08-01T03:58:04;94305.72;;;17.24;73.55
72308;BME280;60257;42.638;23.376;2023-08-01T04:00:30;94301.75;;;17.29;72.38
72308;BME280;60257;42.638;23.376;2023-08-01T04:02:59;94310.47;;;17.31;71.97
72308;BME280;60257;42.638;23.376;2023-08-01T04:05:25;94309.25;;;17.28;71.55
72308;BME280;60257;42.638;23.376;2023-08-01T04:07:50;94311.66;;;17.26;71.68
72308;BME280;60257;42.638;23.376;2023-08-01T04:10:16;94315.19;;;17.27;72.05
72308;BME280;60257;42.638;23.376;2023-08-01T04:12:41;94314.03;;;17.24;72.80
72308;BME280;60257;42.638;23.376;2023-08-01T04:15:08;94317.59;;;17.32;73.50
72308;BME280;60257;42.638;23.376;2023-08-01T04:17:34;94315.97;;;17.35;73.98
72308;BME280;60257;42.638;23.376;2023-08-01T04:20:00;94315.19;;;17.41;73.91
72308;BME280;60257;42.638;23.376;2023-08-01T04:22:25;94322.31;;;17.46;74.18
72308;BME280;60257;42.638;23.376;2023-08-01T04:24:51;94317.97;;;17.48;74.64
72308;BME280;60257;42.638;23.376;2023-08-01T04:27:16;94316.31;;;17.58;75.14
72308;BME280;60257;42.638;23.376;2023-08-01T04:29:42;94315.56;;;17.64;75.22
72308;BME280;60257;42.638;23.376;2023-08-01T04:32:07;94314.75;;;17.71;74.90
72308;BME280;60257;42.638;23.376;2023-08-01T04:34:33;94315.94;;;17.81;74.71
72308;BME280;60257;42.638;23.376;2023-08-01T04:36:58;94313.91;;;17.85;74.32
72308;BME280;60257;42.638;23.376;2023-08-01T04:39:24;94314.69;;;17.89;74.28
72308;BME280;60257;42.638;23.376;2023-08-01T04:41:49;94315.06;;;17.98;74.22
72308;BME280;60257;42.638;23.376;2023-08-01T04:44:15;94312.69;;;17.93;74.23
72308;BME280;60257;42.638;23.376;2023-08-01T04:46:41;94320.56;;;18.08;74.03
72308;BME280;60257;42.638;23.376;2023-08-01T04:49:07;94317.31;;;18.24;73.57
72308;BME280;60257;42.638;23.376;2023-08-01T04:51:33;94316.13;;;18.22;73.37
72308;BME280;60257;42.638;23.376;2023-08-01T04:53:58;94308.13;;;18.41;71.95
72308;BME280;60257;42.638;23.376;2023-08-01T04:56:24;94311.22;;;18.58;70.74
72308;BME280;60257;42.638;23.376;2023-08-01T04:58:49;94315.94;;;18.64;70.19
72308;BME280;60257;42.638;23.376;2023-08-01T05:01:15;94309.09;;;18.79;68.60
72308;BME280;60257;42.638;23.376;2023-08-01T05:03:40;94311.34;;;18.95;67.51
72308;BME280;60257;42.638;23.376;2023-08-01T05:06:06;94305.28;;;19.11;67.34
72308;BME280;60257;42.638;23.376;2023-08-01T05:08:32;94305.94;;;19.22;66.31
72308;BME280;60257;42.638;23.376;2023-08-01T05:10:57;94305.53;;;19.23;66.14
72308;BME280;60257;42.638;23.376;2023-08-01T05:13:23;94306.19;;;19.42;65.33
72308;BME280;60257;42.638;23.376;2023-08-01T05:15:48;94308.19;;;19.38;64.39
72308;BME280;60257;42.638;23.376;2023-08-01T05:18:16;94310.03;;;19.55;64.56
72308;BME280;60257;42.638;23.376;2023-08-01T05:20:41;94317.84;;;19.71;63.52
72308;BME280;60257;42.638;23.376;2023-08-01T05:23:07;94309.41;;;19.78;62.72
72308;BME280;60257;42.638;23.376;2023-08-01T05:25:32;94312.19;;;19.78;62.57
72308;BME280;60257;42.638;23.376;2023-08-01T05:27:58;94313.69;;;19.86;62.15
72308;BME280;60257;42.638;23.376;2023-08-01T05:30:24;94307.91;;;19.70;62.32
72308;BME280;60257;42.638;23.376;2023-08-01T05:32:50;94310.44;;;19.91;62.38
72308;BME280;60257;42.638;23.376;2023-08-01T05:35:16;94310.34;;;19.98;61.41
72308;BME280;60257;42.638;23.376;2023-08-01T05:37:41;94318.69;;;19.98;61.28
72308;BME280;60257;42.638;23.376;2023-08-01T05:40:07;94306.72;;;20.05;60.91
72308;BME280;60257;42.638;23.376;2023-08-01T05:42:33;94310.47;;;20.21;60.32
72308;BME280;60257;42.638;23.376;2023-08-01T05:44:59;94317.72;;;20.15;58.71
72308;BME280;60257;42.638;23.376;2023-08-01T05:47:24;94318.22;;;19.73;60.38
72308;BME280;60257;42.638;23.376;2023-08-01T05:49:49;94315.78;;;19.75;60.55
72308;BME280;60257;42.638;23.376;2023-08-01T05:52:15;94316.63;;;20.06;60.59
72308;BME280;60257;42.638;23.376;2023-08-01T05:54:40;94312.66;;;20.07;60.13
72308;BME280;60257;42.638;23.376;2023-08-01T05:57:08;94304.38;;;19.66;61.21
72308;BME280;60257;42.638;23.376;2023-08-01T05:59:34;94314.66;;;19.69;60.94
72308;BME280;60257;42.638;23.376;2023-08-01T06:01:59;94305.34;;;19.86;61.26
72308;BME280;60257;42.638;23.376;2023-08-01T06:04:25;94309.53;;;20.01;60.76
72308;BME280;60257;42.638;23.376;2023-08-01T06:06:50;94304.75;;;20.02;60.17
72308;BME280;60257;42.638;23.376;2023-08-01T06:09:16;94306.38;;;20.29;59.36
72308;BME280;60257;42.638;23.376;2023-08-01T06:11:41;94305.28;;;20.54;58.78
72308;BME280;60257;42.638;23.376;2023-08-01T06:14:07;94309.72;;;20.51;55.91
72308;BME280;60257;42.638;23.376;2023-08-01T06:16:33;94308.94;;;20.51;55.14
72308;BME280;60257;42.638;23.376;2023-08-01T06:18:58;94311.31;;;20.79;55.57
72308;BME280;60257;42.638;23.376;2023-08-01T06:21:24;94304.25;;;20.98;53.78
72308;BME280;60257;42.638;23.376;2023-08-01T06:23:49;94308.78;;;20.88;54.00
72308;BME280;60257;42.638;23.376;2023-08-01T06:26:15;94306.31;;;20.94;54.85
72308;BME280;60257;42.638;23.376;2023-08-01T06:28:41;94305.81;;;20.99;55.14
72308;BME280;60257;42.638;23.376;2023-08-01T06:31:07;94296.56;;;21.05;53.52
72308;BME280;60257;42.638;23.376;2023-08-01T06:33:32;94300.47;;;20.85;54.15
72308;BME280;60257;42.638;23.376;2023-08-01T06:35:58;94291.22;;;21.18;54.35
72308;BME280;60257;42.638;23.376;2023-08-01T06:38:23;94297.28;;;21.09;54.79
72308;BME280;60257;42.638;23.376;2023-08-01T06:40:49;94283.34;;;21.36;53.81
72308;BME280;60257;42.638;23.376;2023-08-01T06:43:14;94290.38;;;21.44;53.04
72308;BME280;60257;42.638;23.376;2023-08-01T06:45:40;94290.59;;;21.54;52.88
72308;BME280;60257;42.638;23.376;2023-08-01T06:48:05;94281.31;;;21.60;52.57
72308;BME280;60257;42.638;23.376;2023-08-01T06:50:31;94285.91;;;21.70;52.83
72308;BME280;60257;42.638;23.376;2023-08-01T06:52:56;94284.13;;;21.80;51.53
72308;BME280;60257;42.638;23.376;2023-08-01T06:55:22;94293.13;;;21.68;53.21
72308;BME280;60257;42.638;23.376;2023-08-01T06:57:47;94282.63;;;21.75;52.32
72308;BME280;60257;42.638;23.376;2023-08-01T07:00:13;94280.25;;;21.94;52.33
72308;BME280;60257;42.638;23.376;2023-08-01T07:02:38;94290.25;;;21.71;52.93
72308;BME280;60257;42.638;23.376;2023-08-01T07:05:04;94284.59;;;21.32;54.48
72308;BME280;60257;42.638;23.376;2023-08-01T07:07:30;94282.97;;;21.34;54.44
72308;BME280;60257;42.638;23.376;2023-08-01T07:09:55;94286.03;;;21.63;54.54
72308;BME280;60257;42.638;23.376;2023-08-01T07:12:21;94281.34;;;21.80;53.61
72308;BME280;60257;42.638;23.376;2023-08-01T07:14:47;94274.69;;;21.94;52.91
72308;BME280;60257;42.638;23.376;2023-08-01T07:17:12;94267.56;;;22.12;53.60
72308;BME280;60257;42.638;23.376;2023-08-01T07:19:38;94280.06;;;22.24;53.12
72308;BME280;60257;42.638;23.376;2023-08-01T07:22:03;94277.75;;;22.39;52.59
72308;BME280;60257;42.638;23.376;2023-08-01T07:24:29;94265.56;;;22.49;51.37
72308;BME280;60257;42.638;23.376;2023-08-01T07:26:54;94268.31;;;22.52;51.21
72308;BME280;60257;42.638;23.376;2023-08-01T07:29:20;94265.94;;;22.51;51.33
72308;BME280;60257;42.638;23.376;2023-08-01T07:31:45;94274.81;;;22.46;51.14
72308;BME280;60257;42.638;23.376;2023-08-01T07:34:11;94265.13;;;22.50;51.16
72308;BME280;60257;42.638;23.376;2023-08-01T07:36:36;94258.59;;;22.57;50.64
72308;BME280;60257;42.638;23.376;2023-08-01T07:39:02;94263.41;;;22.56;50.37
72308;BME280;60257;42.638;23.376;2023-08-01T07:41:28;94261.56;;;22.50;50.82
72308;BME280;60257;42.638;23.376;2023-08-01T07:43:54;94261.22;;;22.64;51.35
72308;BME280;60257;42.638;23.376;2023-08-01T07:46:19;94261.03;;;22.75;51.15
72308;BME280;60257;42.638;23.376;2023-08-01T07:48:44;94263.66;;;22.82;49.89
72308;BME280;60257;42.638;23.376;2023-08-01T07:51:10;94262.88;;;22.81;49.72
72308;BME280;60257;42.638;23.376;2023-08-01T07:53:37;94263.56;;;22.49;49.97
72308;BME280;60257;42.638;23.376;2023-08-01T07:56:03;94268.84;;;22.63;49.85
72308;BME280;60257;42.638;23.376;2023-08-01T07:58:29;94262.59;;;22.76;49.93
72308;BME280;60257;42.638;23.376;2023-08-01T08:00:55;94268.09;;;22.79;49.78
72308;BME280;60257;42.638;23.376;2023-08-01T08:03:20;94256.91;;;22.79;49.91
72308;BME280;60257;42.638;23.376;2023-08-01T08:05:49;94258.56;;;22.77;49.68
72308;BME280;60257;42.638;23.376;2023-08-01T08:08:14;94255.72;;;22.96;49.49
72308;BME280;60257;42.638;23.376;2023-08-01T08:10:40;94257.81;;;23.09;49.07
72308;BME280;60257;42.638;23.376;2023-08-01T08:13:05;94260.00;;;23.17;48.42
72308;BME280;60257;42.638;23.376;2023-08-01T08:15:31;94257.56;;;23.19;48.47
72308;BME280;60257;42.638;23.376;2023-08-01T08:18:00;94247.50;;;23.22;48.45
72308;BME280;60257;42.638;23.376;2023-08-01T08:20:26;94246.19;;;23.10;48.43
72308;BME280;60257;42.638;23.376;2023-08-01T08:22:52;94235.34;;;23.12;48.65
72308;BME280;60257;42.638;23.376;2023-08-01T08:25:17;94235.84;;;23.23;48.85
72308;BME280;60257;42.638;23.376;2023-08-01T08:27:43;94236.91;;;23.29;48.14
72308;BME280;60257;42.638;23.376;2023-08-01T08:30:09;94236.63;;;23.40;47.85
72308;BME280;60257;42.638;23.376;2023-08-01T08:32:35;94230.00;;;23.50;47.99
72308;BME280;60257;42.638;23.376;2023-08-01T08:35:00;94235.66;;;23.63;49.16
72308;BME280;60257;42.638;23.376;2023-08-01T08:37:26;94233.91;;;23.69;48.06
72308;BME280;60257;42.638;23.376;2023-08-01T08:39:51;94227.13;;;23.83;46.67
72308;BME280;60257;42.638;23.376;2023-08-01T08:42:20;94227.78;;;23.87;46.28
72308;BME280;60257;42.638;23.376;2023-08-01T08:44:50;94225.50;;;24.10;46.23
72308;BME280;60257;42.638;23.376;2023-08-01T08:47:20;94219.63;;;24.21;45.49
72308;BME280;60257;42.638;23.376;2023-08-01T08:49:49;94216.19;;;24.30;45.11
72308;BME280;60257;42.638;23.376;2023-08-01T08:52:16;94218.53;;;24.31;44.79
72308;BME280;60257;42.638;23.376;2023-08-01T08:54:42;94213.50;;;24.39;44.92
72308;BME280;60257;42.638;23.376;2023-08-01T08:57:08;94211.28;;;24.46;44.96
72308;BME280;60257;42.638;23.376;2023-08-01T08:59:34;94212.25;;;24.40;44.40
72308;BME280;60257;42.638;23.376;2023-08-01T09:02:02;94208.91;;;24.45;44.25
72308;BME280;60257;42.638;23.376;2023-08-01T09:04:29;94212.38;;;24.49;43.67
72308;BME280;60257;42.638;23.376;2023-08-01T09:06:58;94205.19;;;24.35;44.19
72308;BME280;60257;42.638;23.376;2023-08-01T09:09:26;94206.28;;;24.25;44.07
72308;BME280;60257;42.638;23.376;2023-08-01T09:11:53;94206.53;;;24.31;44.74
72308;BME280;60257;42.638;23.376;2023-08-01T09:14:21;94188.38;;;24.35;44.69
72308;BME280;60257;42.638;23.376;2023-08-01T09:16:47;94196.47;;;24.46;44.23
72308;BME280;60257;42.638;23.376;2023-08-01T09:19:20;94190.75;;;24.49;44.03
72308;BME280;60257;42.638;23.376;2023-08-01T09:21:46;94193.09;;;24.51;44.07
72308;BME280;60257;42.638;23.376;2023-08-01T09:24:14;94188.28;;;24.51;44.19
72308;BME280;60257;42.638;23.376;2023-08-01T09:26:40;94192.00;;;24.61;44.14
72308;BME280;60257;42.638;23.376;2023-08-01T09:29:06;94188.63;;;24.66;43.98
72308;BME280;60257;42.638;23.376;2023-08-01T09:31:34;94191.06;;;24.64;43.68
72308;BME280;60257;42.638;23.376;2023-08-01T09:34:01;94186.59;;;24.67;43.85
72308;BME280;60257;42.638;23.376;2023-08-01T09:36:29;94181.66;;;24.71;43.56
72308;BME280;60257;42.638;23.376;2023-08-01T09:39:03;94179.19;;;24.73;44.23
72308;BME280;60257;42.638;23.376;2023-08-01T09:41:30;94187.25;;;24.83;43.73
72308;BME280;60257;42.638;23.376;2023-08-01T09:43:56;94177.72;;;24.93;43.43
72308;BME280;60257;42.638;23.376;2023-08-01T09:46:22;94183.88;;;25.01;43.92
72308;BME280;60257;42.638;23.376;2023-08-01T09:48:48;94166.94;;;25.05;44.06
72308;BME280;60257;42.638;23.376;2023-08-01T09:51:16;94167.50;;;25.12;43.25
72308;BME280;60257;42.638;23.376;2023-08-01T09:56:23;94154.44;;;25.31;42.54
72308;BME280;60257;42.638;23.376;2023-08-01T09:58:50;94150.91;;;25.40;41.73
72308;BME280;60257;42.638;23.376;2023-08-01T10:01:18;94155.06;;;25.35;41.98
72308;BME280;60257;42.638;23.376;2023-08-01T10:03:49;94156.31;;;25.34;42.26
72308;BME280;60257;42.638;23.376;2023-08-01T10:06:20;94140.72;;;25.33;41.86
72308;BME280;60257;42.638;23.376;2023-08-01T10:08:47;94133.84;;;25.34;42.29
72308;BME280;60257;42.638;23.376;2023-08-01T10:11:17;94133.84;;;25.34;42.41
72308;BME280;60257;42.638;23.376;2023-08-01T10:13:43;94129.09;;;25.09;42.55
72308;BME280;60257;42.638;23.376;2023-08-01T10:16:10;94136.88;;;25.05;43.04
72308;BME280;60257;42.638;23.376;2023-08-01T10:18:36;94128.50;;;25.27;42.78
72308;BME280;60257;42.638;23.376;2023-08-01T10:21:05;94124.13;;;25.26;42.87
72308;BME280;60257;42.638;23.376;2023-08-01T10:23:32;94128.66;;;25.45;42.16
72308;BME280;60257;42.638;23.376;2023-08-01T10:26:00;94122.38;;;25.41;42.74
72308;BME280;60257;42.638;23.376;2023-08-01T10:28:40;94114.00;;;25.28;42.90
72308;BME280;60257;42.638;23.376;2023-08-01T10:31:14;94115.50;;;25.55;42.39
72308;BME280;60257;42.638;23.376;2023-08-01T10:33:47;94108.44;;;25.72;41.46
72308;BME280;60257;42.638;23.376;2023-08-01T10:36:23;94110.59;;;25.90;41.21
72308;BME280;60257;42.638;23.376;2023-08-01T10:38:57;94097.72;;;26.01;41.42
72308;BME280;60257;42.638;23.376;2023-08-01T10:41:34;94109.19;;;26.16;41.12
72308;BME280;60257;42.638;23.376;2023-08-01T10:44:13;94099.59;;;26.35;40.25
72308;BME280;60257;42.638;23.376;2023-08-01T10:46:59;94094.81;;;26.45;40.13
72308;BME280;60257;42.638;23.376;2023-08-01T10:49:41;94091.25;;;26.54;39.96
72308;BME280;60257;42.638;23.376;2023-08-01T10:52:21;94089.81;;;26.49;39.76
72308;BME280;60257;42.638;23.376;2023-08-01T10:55:00;94085.78;;;26.59;39.88
72308;BME280;60257;42.638;23.376;2023-08-01T10:57:27;94087.69;;;26.62;39.61
72308;BME280;60257;42.638;23.376;2023-08-01T10:59:55;94082.97;;;26.59;39.70
72308;BME280;60257;42.638;23.376;2023-08-01T11:02:26;94083.44;;;26.58;39.85
72308;BME280;60257;42.638;23.376;2023-08-01T11:05:02;94080.03;;;26.72;39.18
72308;BME280;60257;42.638;23.376;2023-08-01T11:07:29;94074.81;;;26.92;38.34
72308;BME280;60257;42.638;23.376;2023-08-01T11:10:11;94067.53;;;26.73;38.68
72308;BME280;60257;42.638;23.376;2023-08-01T11:12:42;94068.03;;;26.80;38.30
72308;BME280;60257;42.638;23.376;2023-08-01T11:15:10;94071.31;;;26.79;38.07
72308;BME280;60257;42.638;23.376;2023-08-01T11:17:37;94065.41;;;26.86;37.53
72308;BME280;60257;42.638;23.376;2023-08-01T11:20:08;94061.31;;;26.87;37.37
72308;BME280;60257;42.638;23.376;2023-08-01T11:22:35;94047.28;;;26.96;36.96
72308;BME280;60257;42.638;23.376;2023-08-01T11:25:01;94048.53;;;27.04;36.44
72308;BME280;60257;42.638;23.376;2023-08-01T11:27:27;94046.50;;;27.05;36.97
72308;BME280;60257;42.638;23.376;2023-08-01T11:29:54;94042.00;;;27.16;36.97
72308;BME280;60257;42.638;23.376;2023-08-01T11:32:20;94043.56;;;27.17;36.56
72308;BME280;60257;42.638;23.376;2023-08-01T11:34:46;94043.09;;;27.10;36.06
72308;BME280;60257;42.638;23.376;2023-08-01T11:37:13;94035.88;;;27.18;36.37
72308;BME280;60257;42.638;23.376;2023-08-01T11:39:40;94040.91;;;27.23;36.10
72308;BME280;60257;42.638;23.376;2023-08-01T11:42:06;94037.78;;;27.39;35.19
72308;BME280;60257;42.638;23.376;2023-08-01T11:44:31;94043.22;;;27.52;35.04
72308;BME280;60257;42.638;23.376;2023-08-01T11:46:57;94037.75;;;27.57;35.35
72308;BME280;60257;42.638;23.376;2023-08-01T11:49:23;94029.31;;;27.57;35.22
72308;BME280;60257;42.638;23.376;2023-08-01T11:51:49;94029.41;;;27.81;35.35
72308;BME280;60257;42.638;23.376;2023-08-01T11:54:15;94022.34;;;27.95;35.42
72308;BME280;60257;42.638;23.376;2023-08-01T11:56:41;94024.09;;;27.83;35.28
72308;BME280;60257;42.638;23.376;2023-08-01T12:01:41;94012.50;;;27.81;34.96
72308;BME280;60257;42.638;23.376;2023-08-01T12:04:07;94009.50;;;27.94;34.73
72308;BME280;60257;42.638;23.376;2023-08-01T12:06:33;94001.00;;;27.43;35.65
72308;BME280;60257;42.638;23.376;2023-08-01T12:09:25;94002.09;;;27.45;35.77
72308;BME280;60257;42.638;23.376;2023-08-01T12:11:58;93997.19;;;27.73;35.24
72308;BME280;60257;42.638;23.376;2023-08-01T12:14:25;93997.38;;;27.51;34.55
72308;BME280;60257;42.638;23.376;2023-08-01T12:16:50;93991.41;;;27.77;35.24
72308;BME280;60257;42.638;23.376;2023-08-01T12:19:19;93989.09;;;28.08;34.27
72308;BME280;60257;42.638;23.376;2023-08-01T12:21:46;93987.75;;;27.94;33.33
72308;BME280;60257;42.638;23.376;2023-08-01T12:24:12;93988.63;;;28.10;32.98
72308;BME280;60257;42.638;23.376;2023-08-01T12:26:37;93985.06;;;28.00;33.02
72308;BME280;60257;42.638;23.376;2023-08-01T12:29:03;93984.88;;;28.04;33.01
72308;BME280;60257;42.638;23.376;2023-08-01T12:31:28;93984.03;;;28.21;32.79
72308;BME280;60257;42.638;23.376;2023-08-01T12:33:54;93980.34;;;28.39;32.37
72308;BME280;60257;42.638;23.376;2023-08-01T12:36:20;93968.25;;;28.48;32.44
72308;BME280;60257;42.638;23.376;2023-08-01T12:38:45;93975.59;;;28.78;32.94
72308;BME280;60257;42.638;23.376;2023-08-01T12:41:11;93971.72;;;28.90;32.83
72308;BME280;60257;42.638;23.376;2023-08-01T12:43:37;93966.69;;;28.94;32.69
72308;BME280;60257;42.638;23.376;2023-08-01T12:46:03;93969.75;;;28.82;32.48
72308;BME280;60257;42.638;23.376;2023-08-01T12:48:28;93962.72;;;29.01;32.95
72308;BME280;60257;42.638;23.376;2023-08-01T12:50:54;93959.41;;;29.02;31.77
72308;BME280;60257;42.638;23.376;2023-08-01T12:53:21;93954.84;;;28.81;36.31